Time;durP1;ratioP1;P1;durP2;ratioP2;P2;SDS_P1;SDS_P2;PMS_P1;PMS_P2;Temp;Humidity;BMP_temperature;BMP_pressure;BME280_temperature;BME280_humidity;BME280_pressure;Samples;Min_cycle;Max_cycle;Signal;HPM_P1;HPM_P2
2023/07/25 00:01:17;;;;;;;2.83;2.37;;;16.70;98.70;;;16.92;84.34;96974.00;5134405;27;20443;-79
2023/07/25 00:03:44;;;;;;;2.37;2.17;;;16.70;98.20;;;16.96;83.63;96985.13;5114235;27;23151;-83
2023/07/25 00:06:11;;;;;;;3.70;2.30;;;16.70;97.60;;;16.86;84.25;96975.09;5114211;27;20511;-79
2023/07/25 00:08:39;;;;;;;3.40;2.97;;;16.70;97.60;;;16.94;84.38;96965.50;5121932;27;20488;-81
2023/07/25 00:11:13;;;;;;;2.93;2.63;;;16.70;98.10;;;16.84;84.47;96960.94;5124703;27;20464;-79
2023/07/25 00:13:40;;;;;;;3.27;2.70;;;16.60;97.90;;;16.87;84.24;96960.38;5129101;27;20468;-81
2023/07/25 00:16:07;;;;;;;3.50;3.03;;;16.60;98.20;;;16.74;84.94;96955.53;5130290;27;20489;-80
2023/07/25 00:18:35;;;;;;;9.40;3.00;;;16.50;98.90;;;16.64;85.16;96957.25;5130377;27;20786;-80
2023/07/25 00:21:02;;;;;;;2.40;2.20;;;16.50;99.40;;;16.73;85.18;96968.38;5109133;27;20443;-80
2023/07/25 00:23:29;;;;;;;4.10;2.73;;;16.50;99.50;;;16.61;85.99;96963.25;5130875;27;20532;-80
2023/07/25 00:25:58;;;;;;;2.73;2.47;;;16.40;99.90;;;16.47;86.52;96952.13;5116123;27;20455;-81
2023/07/25 00:28:25;;;;;;;2.77;2.47;;;16.40;99.90;;;16.54;86.69;96958.09;5132531;27;20479;-79
2023/07/25 00:30:52;;;;;;;2.60;2.40;;;16.40;99.90;;;16.60;86.55;96958.06;5140485;27;20928;-78
2023/07/25 00:33:20;;;;;;;2.50;2.27;;;16.30;99.90;;;16.85;86.49;96962.56;5114012;27;20896;-79
2023/07/25 00:35:53;;;;;;;2.80;2.40;;;16.50;99.90;;;16.84;86.03;96963.66;5120316;27;20577;-82
2023/07/25 00:38:20;;;;;;;4.13;2.67;;;16.60;99.90;;;17.06;85.51;96965.19;5131230;27;20459;-80
2023/07/25 00:40:47;;;;;;;3.23;2.60;;;16.70;99.90;;;17.26;82.92;96939.66;5138037;27;20549;-80
2023/07/25 00:43:16;;;;;;;3.50;2.90;;;17.10;97.30;;;17.20;82.43;96952.53;5135705;27;20930;-79
2023/07/25 00:45:44;;;;;;;2.43;2.23;;;17.10;96.00;;;17.19;82.69;96961.81;5130404;27;20459;-79
2023/07/25 00:48:12;;;;;;;2.70;2.50;;;17.10;95.80;;;17.22;82.39;96955.81;5132633;27;20451;-81
2023/07/25 00:50:39;;;;;;;3.30;2.83;;;17.10;95.90;;;17.06;82.32;96900.53;5129114;27;20450;-79
2023/07/25 00:53:09;;;;;;;3.03;2.30;;;17.20;96.30;;;17.38;81.37;96948.28;5109660;27;20451;-78
2023/07/25 00:55:36;;;;;;;2.60;2.30;;;17.20;95.20;;;17.39;81.31;96939.00;5131034;27;20454;-79
2023/07/25 00:58:03;;;;;;;2.80;2.50;;;17.30;94.90;;;17.06;81.57;96905.16;5110781;27;20491;-80
2023/07/25 01:00:37;;;;;;;3.60;3.00;;;17.20;94.60;;;16.77;81.82;96856.81;5116311;27;20581;-78
2023/07/25 01:03:05;;;;;;;2.87;2.57;;;17.10;95.20;;;17.26;81.81;96931.47;5095387;27;20498;-80
2023/07/25 01:05:36;;;;;;;2.73;2.30;;;17.10;95.40;;;17.10;82.04;96937.03;5127207;27;20585;-79
2023/07/25 01:08:03;;;;;;;4.17;2.60;;;17.00;95.30;;;17.26;83.10;96943.22;5129246;27;20457;-79
2023/07/25 01:10:32;;;;;;;2.73;2.37;;;17.00;96.50;;;17.47;81.66;96940.31;5136543;27;20479;-78
2023/07/25 01:12:59;;;;;;;4.70;2.37;;;17.30;95.60;;;17.45;80.40;96926.13;5127622;27;20449;-80
2023/07/25 01:15:28;;;;;;;4.87;2.97;;;17.30;94.00;;;17.36;79.77;96919.63;5134008;27;20506;-79
2023/07/25 01:17:57;;;;;;;2.47;2.27;;;17.30;93.90;;;17.40;80.05;96926.19;5121566;27;20957;-80
2023/07/25 01:20:24;;;;;;;4.10;2.30;;;17.20;94.20;;;17.20;80.93;96916.25;5126015;27;20463;-79
2023/07/25 01:22:52;;;;;;;3.70;2.37;;;17.00;94.70;;;17.16;81.11;96920.66;5111309;27;20506;-80
2023/07/25 01:25:21;;;;;;;3.40;2.87;;;17.00;94.60;;;17.12;80.81;96912.22;5102243;27;20453;-80
2023/07/25 01:27:49;;;;;;;3.07;2.60;;;16.90;94.60;;;16.75;81.79;96859.81;5134399;27;21180;-78
2023/07/25 01:30:16;;;;;;;2.87;2.40;;;16.80;95.20;;;17.06;81.37;96921.53;5117200;27;20459;-79
2023/07/25 01:32:44;;;;;;;2.10;1.90;;;16.80;95.30;;;17.10;81.81;96926.13;5105568;27;20445;-79
2023/07/25 01:35:11;;;;;;;5.33;2.47;;;16.80;96.20;;;17.15;81.39;96928.00;5114383;27;20483;-79
2023/07/25 01:37:38;;;;;;;2.80;2.00;;;16.90;95.50;;;17.08;81.17;96917.41;5130026;27;21064;-79
2023/07/25 01:40:07;;;;;;;2.70;2.23;;;16.90;94.90;;;17.20;81.69;96911.59;5105352;27;20563;-79
2023/07/25 01:42:35;;;;;;;2.10;1.80;;;17.00;95.20;;;17.25;81.11;96911.56;5133466;27;21048;-79
2023/07/25 01:45:03;;;;;;;2.60;2.20;;;17.10;94.40;;;17.31;80.90;96908.78;5139149;27;20501;-80
2023/07/25 01:47:31;;;;;;;2.60;2.40;;;17.10;93.70;;;17.30;80.14;96909.88;5111829;27;20454;-79
2023/07/25 01:49:59;;;;;;;3.70;2.70;;;17.10;94.00;;;17.27;79.62;96903.91;5119998;27;20967;-81
2023/07/25 01:52:26;;;;;;;3.00;2.30;;;17.10;93.50;;;17.31;78.88;96898.69;5106088;27;20461;-81
2023/07/25 01:54:54;;;;;;;3.97;2.00;;;17.10;93.20;;;17.27;79.37;96892.97;5138138;27;20455;-81
2023/07/25 01:57:22;;;;;;;3.43;2.43;;;17.00;93.60;;;17.09;79.69;96891.75;5109593;27;20998;-80
2023/07/25 01:59:51;;;;;;;2.73;2.23;;;17.00;93.80;;;16.99;80.40;96887.19;5128463;27;20453;-80
2023/07/25 02:02:18;;;;;;;2.87;2.57;;;16.90;94.00;;;17.05;79.95;96896.16;5128892;27;20462;-79
2023/07/25 02:04:46;;;;;;;2.57;2.20;;;16.80;94.00;;;17.02;81.43;96906.81;5136443;27;20503;-81
2023/07/25 02:07:13;;;;;;;2.77;2.23;;;16.80;95.00;;;16.99;80.99;96911.75;5158244;27;20459;-78
2023/07/25 02:09:41;;;;;;;2.67;2.40;;;16.80;94.80;;;17.00;80.51;96907.13;5145227;27;20449;-77
2023/07/25 02:12:09;;;;;;;3.00;2.70;;;16.80;94.50;;;17.06;80.56;96902.41;5168177;27;20444;-79
2023/07/25 02:14:36;;;;;;;2.53;2.20;;;16.90;94.40;;;17.10;80.22;96900.78;5157116;27;20438;-78
2023/07/25 02:17:06;;;;;;;2.93;2.70;;;17.00;93.80;;;17.02;79.82;96879.53;5152218;27;20502;-80
2023/07/25 02:19:33;;;;;;;3.90;2.40;;;17.10;93.80;;;17.34;79.90;96916.38;5119812;27;20461;-80
2023/07/25 02:22:00;;;;;;;2.30;2.10;;;17.10;93.70;;;17.55;78.45;96911.56;5130946;27;20471;-81
2023/07/25 02:24:27;;;;;;;2.37;2.13;;;17.30;93.60;;;17.62;79.05;96903.03;5133326;27;20449;-81
2023/07/25 02:26:54;;;;;;;2.33;2.10;;;17.40;93.10;;;17.53;77.46;96876.38;5112846;27;20468;-78
2023/07/25 02:29:21;;;;;;;4.40;2.10;;;17.40;92.30;;;17.50;77.93;96895.22;5142126;27;20517;-78
2023/07/25 02:31:49;;;;;;;2.60;2.30;;;17.20;92.80;;;17.42;77.83;96894.75;5125945;27;20517;-81
2023/07/25 02:34:17;;;;;;;3.33;2.63;;;17.20;92.60;;;17.35;78.49;96893.44;5124880;27;20559;-78
2023/07/25 02:36:45;;;;;;;2.30;2.10;;;17.20;92.90;;;17.58;77.32;96893.78;5128082;27;20470;-79
2023/07/25 02:39:12;;;;;;;3.00;2.70;;;17.30;92.50;;;17.06;77.88;96831.47;5129143;27;20448;-80
2023/07/25 02:41:39;;;;;;;2.70;2.37;;;17.30;92.60;;;17.42;77.15;96896.66;5127542;27;20456;-79
2023/07/25 02:44:06;;;;;;;3.30;2.47;;;17.20;92.40;;;17.46;77.61;96905.13;5114691;27;20444;-80
2023/07/25 02:46:33;;;;;;;2.53;2.13;;;17.10;92.80;;;17.37;77.73;96902.19;5129687;27;21199;-79
2023/07/25 02:49:01;;;;;;;2.43;2.10;;;17.20;92.70;;;17.33;77.81;96896.47;5131167;27;20509;-79
2023/07/25 02:51:29;;;;;;;3.00;2.50;;;17.10;92.70;;;17.30;77.91;96888.03;5124543;27;20454;-79
2023/07/25 02:53:56;;;;;;;2.70;2.33;;;17.10;92.40;;;17.24;78.04;96887.28;5126957;27;20468;-79
2023/07/25 02:56:26;;;;;;;2.40;2.17;;;17.00;92.70;;;17.11;78.78;96870.47;5130718;27;21348;-78
2023/07/25 02:58:53;;;;;;;2.43;2.23;;;16.90;93.20;;;17.31;81.10;96860.47;5128251;27;20496;-80
2023/07/25 03:01:23;;;;;;;2.70;2.50;;;16.90;94.90;;;17.19;79.45;96852.66;5122593;27;20545;-81
2023/07/25 03:03:51;;;;;;;7.40;2.57;;;17.00;93.70;;;17.34;78.80;96832.59;5134488;27;20476;-79
2023/07/25 03:06:53;;;;;;;5.33;2.10;;;17.00;93.50;;;17.37;78.28;96812.09;5130578;27;20973;-79
2023/07/25 03:09:20;;;;;;;2.90;2.60;;;17.20;93.50;;;17.33;77.65;96824.69;5135235;27;20457;-80
2023/07/25 03:11:48;;;;;;;3.30;2.43;;;17.10;92.60;;;16.99;79.94;96816.28;5112819;27;20468;-79
2023/07/25 03:14:15;;;;;;;3.50;3.03;;;17.00;93.50;;;16.87;81.24;96807.63;5121394;27;20447;-80
2023/07/25 03:16:43;;;;;;;3.33;2.47;;;16.80;94.40;;;16.93;81.22;96811.94;5131773;27;20456;-79
2023/07/25 03:19:10;;;;;;;2.57;2.37;;;16.70;94.70;;;17.37;79.93;96814.84;5134409;27;20455;-81
2023/07/25 03:21:38;;;;;;;2.40;2.10;;;17.00;94.50;;;17.77;77.47;96812.72;5106375;27;20465;-80
2023/07/25 03:24:06;;;;;;;2.83;2.30;;;17.50;92.90;;;17.69;76.69;96816.91;5107523;27;20510;-80
2023/07/25 03:26:33;;;;;;;2.20;1.97;;;17.50;91.90;;;18.16;75.63;96808.16;5139693;27;20437;-79
2023/07/25 03:29:00;;;;;;;2.93;2.20;;;17.70;92.30;;;18.28;74.20;96805.00;5113287;27;20503;-79
2023/07/25 03:31:28;;;;;;;4.27;2.77;;;17.90;91.30;;;17.17;76.35;96742.97;5138625;27;20841;-78
2023/07/25 03:33:55;;;;;;;2.47;1.93;;;17.60;91.20;;;17.84;77.62;96813.19;5131870;27;20531;-80
2023/07/25 03:36:24;;;;;;;3.03;2.17;;;17.40;92.90;;;18.47;74.41;96823.31;5136671;27;20452;-80
2023/07/25 03:38:52;;;;;;;2.73;2.23;;;18.00;91.20;;;18.57;71.19;96773.94;5109262;27;20890;-80
2023/07/25 03:41:20;;;;;;;3.33;2.60;;;18.50;89.50;;;18.21;72.58;96804.56;5113504;27;20790;-80
2023/07/25 03:43:47;;;;;;;3.30;2.20;;;18.10;89.20;;;17.59;75.81;96821.69;5131690;27;20450;-81
2023/07/25 03:46:14;;;;;;;3.50;2.50;;;17.60;90.30;;;17.34;77.29;96821.69;5131858;27;20445;-81
2023/07/25 03:48:41;;;;;;;2.50;2.13;;;17.20;91.70;;;17.46;77.46;96824.00;5134068;27;20451;-81
2023/07/25 03:51:08;;;;;;;3.10;2.40;;;17.20;92.60;;;17.54;76.20;96819.81;5109211;27;20440;-82
2023/07/25 03:53:35;;;;;;;3.30;2.67;;;17.30;92.20;;;17.60;75.78;96834.25;5129232;27;20453;-81
2023/07/25 03:56:05;;;;;;;3.17;2.80;;;17.30;91.70;;;17.15;77.95;96835.22;5113747;27;20531;-81
2023/07/25 03:58:32;;;;;;;3.30;3.00;;;17.00;92.20;;;16.90;79.31;96823.41;5108993;27;20490;-81
2023/07/25 04:00:59;;;;;;;2.40;2.20;;;16.80;93.00;;;16.58;81.41;96816.56;5125239;27;20852;-78
2023/07/25 04:03:26;;;;;;;2.63;2.43;;;16.60;93.90;;;16.45;82.31;96809.03;5111861;27;21043;-78
2023/07/25 04:05:53;;;;;;;3.47;2.93;;;16.50;94.90;;;16.24;82.77;96803.72;5122480;27;20510;-77
2023/07/25 04:08:21;;;;;;;3.70;3.40;;;16.30;95.30;;;16.23;83.34;96804.81;5129311;27;20530;-78
2023/07/25 04:10:48;;;;;;;4.30;3.00;;;16.20;95.70;;;16.14;83.37;96804.59;5126129;27;20447;-78
2023/07/25 04:13:17;;;;;;;3.60;3.03;;;16.10;95.70;;;16.17;83.58;96806.75;5129240;27;20442;-78
2023/07/25 04:15:44;;;;;;;4.20;3.20;;;16.10;95.80;;;16.22;83.58;96800.47;5111107;27;20453;-77
2023/07/25 04:18:11;;;;;;;3.50;3.20;;;16.10;96.30;;;16.12;83.81;96807.59;5138385;27;20556;-78
2023/07/25 04:20:38;;;;;;;2.73;2.53;;;16.10;96.50;;;16.23;83.69;96821.16;5110685;27;20456;-78
2023/07/25 04:23:05;;;;;;;3.47;3.17;;;16.10;96.40;;;16.79;82.06;96821.88;5129355;27;20948;-79
2023/07/25 04:25:32;;;;;;;3.30;2.43;;;16.40;96.90;;;17.27;79.30;96832.94;5130079;27;20520;-77
2023/07/25 04:27:59;;;;;;;2.50;2.30;;;16.90;94.20;;;17.48;77.36;96838.19;5142543;27;20452;-77
2023/07/25 04:30:28;;;;;;;3.60;2.50;;;17.20;92.20;;;18.21;74.64;96834.63;5129566;27;20456;-80
2023/07/25 04:32:55;;;;;;;3.33;2.50;;;17.80;91.60;;;18.44;72.28;96856.75;5139504;27;20990;-82
2023/07/25 04:35:22;;;;;;;5.30;3.10;;;18.20;89.80;;;17.73;73.26;96817.16;5133821;27;20466;-80
2023/07/25 04:37:50;;;;;;;4.50;2.63;;;18.10;89.40;;;18.29;73.09;96855.84;5128159;27;20462;-79
2023/07/25 04:40:17;;;;;;;3.20;2.37;;;18.00;90.00;;;18.69;71.75;96867.28;5142705;27;20457;-82
2023/07/25 04:42:44;;;;;;;3.80;2.97;;;18.20;89.60;;;18.17;72.68;96861.72;5146727;27;20793;-80
2023/07/25 04:45:12;;;;;;;3.07;2.57;;;18.10;89.00;;;18.38;72.04;96870.47;5112940;27;20439;-82
2023/07/25 04:47:41;;;;;;;3.70;2.53;;;18.10;89.30;;;17.98;73.12;96869.88;5132820;27;20502;-79
2023/07/25 04:50:09;;;;;;;3.20;2.90;;;17.90;89.30;;;18.02;73.26;96867.34;5127173;27;21128;-79
2023/07/25 04:52:36;;;;;;;3.83;2.87;;;17.70;89.80;;;17.66;74.96;96871.28;5111178;27;20446;-80
2023/07/25 04:55:05;;;;;;;4.00;3.10;;;17.60;90.30;;;17.87;74.29;96871.88;5111151;27;20502;-81
2023/07/25 04:57:33;;;;;;;2.90;2.60;;;17.60;90.40;;;17.77;74.55;96880.22;5129089;27;20555;-79
2023/07/25 05:00:01;;;;;;;4.10;2.83;;;17.60;90.50;;;18.32;73.07;96873.56;5101834;27;20444;-79
2023/07/25 05:02:28;;;;;;;3.63;2.97;;;17.80;90.60;;;19.18;70.16;96875.31;5134177;27;20457;-80
2023/07/25 05:04:56;;;;;;;2.87;2.67;;;18.60;89.10;;;19.36;68.74;96867.34;5105667;27;20444;-82
2023/07/25 05:07:24;;;;;;;3.40;2.30;;;19.00;87.30;;;19.64;68.02;96859.97;5130803;27;20477;-78
2023/07/25 05:09:51;;;;;;;2.80;2.30;;;19.20;86.80;;;19.92;66.40;96860.03;5132218;27;20487;-80
2023/07/25 05:12:18;;;;;;;4.10;2.80;;;19.50;85.60;;;19.80;66.55;96863.25;5132181;27;20531;-81
2023/07/25 05:14:45;;;;;;;2.83;2.37;;;19.60;85.20;;;19.49;67.07;96863.00;5143682;27;20442;-82
2023/07/25 05:17:13;;;;;;;3.00;2.20;;;19.50;84.90;;;19.38;67.32;96856.91;5112399;27;20438;-80
2023/07/25 05:19:42;;;;;;;2.60;2.40;;;19.30;85.30;;;19.27;68.11;96850.00;5131145;27;21009;-81
2023/07/25 05:22:10;;;;;;;3.00;2.67;;;19.10;85.40;;;19.80;66.06;96855.03;5103039;27;20911;-81
2023/07/25 05:24:38;;;;;;;3.13;2.27;;;19.50;85.00;;;19.30;68.05;96850.19;5126538;27;20446;-82
2023/07/25 05:27:06;;;;;;;3.37;3.07;;;19.10;85.40;;;18.60;70.83;96836.25;5114383;27;20517;-79
2023/07/25 05:29:33;;;;;;;3.60;2.70;;;18.70;86.30;;;18.59;70.56;96826.44;5112672;27;20479;-78
2023/07/25 05:32:01;;;;;;;4.07;2.60;;;18.50;86.70;;;18.41;71.13;96819.84;5139544;27;20485;-81
2023/07/25 05:34:28;;;;;;;3.53;3.20;;;18.30;87.10;;;18.15;72.20;96827.59;5133206;27;20533;-81
2023/07/25 05:36:55;;;;;;;3.80;2.80;;;18.20;87.40;;;18.19;74.05;96814.97;5132609;27;20464;-80
2023/07/25 05:39:24;;;;;;;3.97;2.97;;;18.00;89.00;;;18.11;72.84;96819.97;5109464;28;20449;-80
2023/07/25 05:41:51;;;;;;;5.70;2.87;;;18.00;88.40;;;18.17;72.62;96817.19;5108513;27;20951;-79
2023/07/25 05:44:18;;;;;;;2.73;2.53;;;18.00;88.40;;;18.22;72.79;96814.38;5120127;27;20456;-81
2023/07/25 05:46:45;;;;;;;3.83;2.60;;;18.00;88.60;;;18.19;72.36;96812.22;5092571;27;20456;-81
2023/07/25 05:49:13;;;;;;;3.63;2.50;;;18.10;88.20;;;18.15;72.68;96816.66;5121877;27;20567;-80
2023/07/25 05:51:40;;;;;;;3.00;2.57;;;18.10;88.20;;;18.33;72.21;96829.53;5130384;27;20462;-78
2023/07/25 05:54:08;;;;;;;3.43;2.90;;;18.20;88.30;;;18.15;72.30;96817.47;5122862;27;20449;-81
2023/07/25 05:56:36;;;;;;;3.97;2.80;;;18.30;88.00;;;18.63;73.34;96827.44;5133478;27;20467;-81
2023/07/25 05:59:04;;;;;;;8.70;3.77;;;18.40;88.80;;;19.25;69.36;96818.25;5101753;27;20495;-80
2023/07/25 06:01:31;;;;;;;6.70;4.63;;;18.90;87.90;;;19.81;66.88;96821.03;5107896;27;20460;-83
2023/07/25 06:03:58;;;;;;;6.33;3.53;;;19.30;86.00;;;19.29;68.04;96825.84;5118415;27;20447;-79
2023/07/25 06:06:26;;;;;;;6.53;4.00;;;19.20;85.50;;;19.36;68.64;96832.56;5113387;27;20442;-78
2023/07/25 06:08:53;;;;;;;3.53;3.10;;;19.10;86.10;;;19.50;67.15;96843.53;5128214;27;22031;-80
2023/07/25 06:11:23;;;;;;;8.50;2.90;;;19.20;85.50;;;19.32;67.46;96850.72;5124472;27;20608;-81
2023/07/25 06:13:54;;;;;;;3.40;3.10;;;19.00;85.30;;;18.75;69.24;96848.88;5110187;27;20440;-78
2023/07/25 06:16:21;;;;;;;3.93;3.47;;;18.70;86.00;;;18.52;72.32;96853.31;5132523;27;20478;-74
2023/07/25 06:18:49;;;;;;;3.80;3.50;;;18.40;87.60;;;18.04;76.24;96844.13;5134148;27;20496;-81
2023/07/25 06:21:16;;;;;;;6.40;4.00;;;18.10;90.50;;;17.72;77.96;96842.00;5121573;28;20460;-78
2023/07/25 06:23:43;;;;;;;6.53;4.20;;;17.70;91.40;;;17.47;80.54;96828.34;5145475;27;20436;-80
2023/07/25 06:26:11;;;;;;;4.83;3.97;;;17.50;93.40;;;16.87;81.70;96755.78;5136565;27;20471;-75
2023/07/25 06:28:38;;;;;;;5.13;4.63;;;17.20;94.50;;;17.14;81.86;96822.69;5141864;27;20468;-75
2023/07/25 06:31:07;;;;;;;5.20;4.70;;;17.00;95.10;;;17.06;86.43;96831.47;5150477;27;20452;-77
2023/07/25 06:33:36;;;;;;;5.33;4.83;;;17.00;99.40;;;17.16;85.39;96830.59;5144161;27;20459;-81
2023/07/25 06:36:03;;;;;;;8.57;4.77;;;16.90;99.40;;;17.21;86.93;96828.63;5138536;27;20521;-78
2023/07/25 06:38:30;;;;;;;6.97;5.00;;;16.90;99.90;;;17.26;85.82;96828.56;5141110;27;20468;-77
2023/07/25 06:40:58;;;;;;;5.67;3.97;;;16.90;99.90;;;17.01;85.72;96818.72;5143705;27;20812;-80
2023/07/25 06:43:25;;;;;;;4.60;4.00;;;16.90;99.40;;;16.91;86.84;96807.88;5140703;27;20466;-76
2023/07/25 06:45:53;;;;;;;5.00;3.23;;;16.80;99.90;;;16.86;85.96;96800.53;5139225;27;20520;-80
2023/07/25 06:48:21;;;;;;;4.17;3.40;;;16.70;99.30;;;16.66;86.24;96776.97;5139149;27;20447;-74
2023/07/25 06:50:49;;;;;;;3.73;3.23;;;16.60;98.90;;;16.70;86.94;96784.31;5096516;27;20972;-75
2023/07/25 06:53:16;;;;;;;4.07;3.67;;;16.60;99.90;;;16.65;88.03;96781.63;5103164;27;20955;-73
2023/07/25 06:55:43;;;;;;;4.53;4.13;;;16.40;99.90;;;16.60;88.99;96770.75;5123135;27;20455;-72
2023/07/25 06:58:10;;;;;;;5.10;4.30;;;16.40;99.90;;;16.55;89.52;96762.63;5101765;27;20470;-74
2023/07/25 07:00:39;;;;;;;7.00;4.90;;;16.40;99.90;;;16.49;89.48;96763.75;5125341;27;20501;-75
2023/07/25 07:03:07;;;;;;;6.73;4.57;;;16.40;99.90;;;16.25;90.43;96750.84;5112531;27;20535;-73
2023/07/25 07:05:36;;;;;;;5.47;4.97;;;16.30;99.90;;;16.41;91.30;96752.34;5123628;27;20456;-73
2023/07/25 07:08:03;;;;;;;5.90;4.23;;;16.40;99.90;;;16.55;91.97;96748.97;5124203;27;20466;-73
2023/07/25 07:10:32;;;;;;;4.93;4.17;;;16.40;99.90;;;16.58;91.53;96745.69;5130112;27;20575;-73
2023/07/25 07:13:00;;;;;;;5.20;4.67;;;16.50;99.90;;;16.76;90.18;96735.19;5131314;27;20465;-75
2023/07/25 07:15:27;;;;;;;6.23;4.43;;;16.60;99.90;;;16.96;89.85;96737.72;5129360;27;20484;-74
2023/07/25 07:17:54;;;;;;;5.50;4.83;;;16.70;99.90;;;17.21;89.30;96752.22;5115072;27;20455;-78
2023/07/25 07:20:22;;;;;;;5.70;4.13;;;16.90;99.90;;;17.07;90.60;96740.38;5129932;27;20440;-77
2023/07/25 07:22:51;;;;;;;6.53;5.83;;;17.00;99.90;;;17.02;90.13;96727.59;5098436;27;20452;-76
2023/07/25 07:25:18;;;;;;;6.37;5.70;;;17.00;99.90;;;17.12;90.03;96732.91;5126503;27;20456;-78
2023/07/25 07:27:45;;;;;;;6.47;5.33;;;17.00;99.90;;;17.02;89.83;96732.22;5122447;27;20492;-75
2023/07/25 07:30:12;;;;;;;7.03;5.77;;;16.90;99.90;;;17.27;90.64;96745.59;5112981;27;20920;-78
2023/07/25 07:32:39;;;;;;;5.87;5.30;;;17.00;99.90;;;16.99;89.37;96684.53;5120716;27;20455;-79
2023/07/25 07:35:07;;;;;;;6.30;5.57;;;17.10;99.90;;;17.28;88.92;96752.69;5125862;27;20507;-78
2023/07/25 07:37:35;;;;;;;11.47;6.67;;;17.10;99.90;;;17.21;90.25;96763.13;5122097;27;22871;-78
2023/07/25 07:40:04;;;;;;;7.43;6.50;;;17.10;99.90;;;17.20;90.06;96755.22;5127020;27;20475;-78
2023/07/25 07:42:31;;;;;;;6.17;5.57;;;17.10;99.90;;;16.98;89.49;96757.31;5124304;27;20936;-77
2023/07/25 07:44:58;;;;;;;6.57;5.93;;;17.00;99.90;;;17.35;89.53;96767.88;5111295;27;20851;-77
2023/07/25 07:47:26;;;;;;;6.87;6.27;;;17.10;99.90;;;17.42;89.47;96782.00;5127389;27;20451;-76
2023/07/25 07:49:54;;;;;;;7.27;6.57;;;17.20;99.90;;;17.40;88.63;96803.34;5109075;27;20800;-76
2023/07/25 07:52:22;;;;;;;8.20;6.80;;;17.20;99.90;;;17.26;91.10;96806.75;5099365;27;20808;-75
2023/07/25 07:54:49;;;;;;;8.33;6.80;;;17.20;99.90;;;17.05;91.31;96802.56;5101804;27;20464;-75
2023/07/25 07:57:18;;;;;;;11.17;7.83;;;17.00;99.90;;;17.02;93.61;96811.34;5130042;27;20447;-77
2023/07/25 07:59:45;;;;;;;13.07;8.77;;;16.90;99.90;;;16.87;97.33;96795.91;5104377;27;20478;-76
2023/07/25 08:02:13;;;;;;;12.80;8.30;;;16.80;99.90;;;16.74;100.00;96798.19;5112718;27;20458;-78
2023/07/25 08:04:40;;;;;;;9.13;8.10;;;16.80;99.90;;;16.85;98.83;96788.00;5105522;27;20452;-76
2023/07/25 08:07:07;;;;;;;7.83;6.87;;;16.80;99.90;;;17.12;96.70;96792.16;5126567;27;20455;-77
2023/07/25 08:09:34;;;;;;;6.87;6.20;;;16.90;99.90;;;17.35;93.93;96784.25;5115061;27;20449;-77
2023/07/25 08:12:03;;;;;;;7.30;6.23;;;17.00;99.90;;;17.33;93.71;96806.41;5123008;27;20469;-77
2023/07/25 08:14:32;;;;;;;11.03;6.27;;;17.00;99.90;;;17.16;93.24;96768.63;5135196;27;20453;-77
2023/07/25 08:16:59;;;;;;;8.70;5.67;;;17.10;99.90;;;17.55;91.46;96805.06;5113419;27;20468;-77
2023/07/25 08:19:26;;;;;;;5.87;4.23;;;17.30;99.90;;;17.39;90.28;96812.63;5108580;27;20546;-77
2023/07/25 08:21:54;;;;;;;4.40;3.93;;;17.30;99.90;;;17.09;89.70;96799.00;5115545;27;20452;-77
2023/07/25 08:24:22;;;;;;;6.97;4.43;;;17.10;99.90;;;17.27;89.86;96827.47;5105336;27;20541;-77
2023/07/25 08:26:50;;;;;;;4.60;4.20;;;17.10;99.90;;;17.27;88.78;96834.84;5122679;27;20471;-77
2023/07/25 08:29:17;;;;;;;4.73;3.10;;;17.00;99.90;;;16.91;90.86;96832.41;5123128;27;20451;-77
2023/07/25 08:31:46;;;;;;;4.20;3.80;;;16.90;99.90;;;17.09;90.54;96841.84;5100204;27;20455;-77
2023/07/25 08:34:13;;;;;;;2.83;2.23;;;16.90;99.90;;;16.85;86.60;96848.00;5104795;27;20949;-78
2023/07/25 08:36:40;;;;;;;3.10;2.90;;;16.80;98.10;;;16.65;88.04;96833.44;5107841;27;20448;-77
2023/07/25 08:39:07;;;;;;;3.80;2.93;;;16.70;99.00;;;16.55;89.68;96837.06;5125491;27;20954;-77
2023/07/25 08:41:41;;;;;;;2.30;2.10;;;16.60;99.90;;;16.16;90.11;96842.47;5099668;27;20796;-76
2023/07/25 08:44:10;;;;;;;2.87;2.40;;;16.40;99.90;;;15.99;93.77;96849.06;5104390;27;20452;-76
2023/07/25 08:46:41;;;;;;;2.83;2.33;;;16.20;99.90;;;15.80;95.28;96846.94;5116127;27;20449;-78
2023/07/25 08:49:15;;;;;;;3.13;2.87;;;16.00;99.90;;;15.92;97.36;96837.66;5128070;27;20844;-78
2023/07/25 08:51:45;;;;;;;5.27;3.10;;;16.00;99.90;;;16.02;96.86;96843.09;5124831;27;20992;-79
2023/07/25 08:54:21;;;;;;;3.53;2.80;;;16.00;99.90;;;16.18;97.47;96829.38;5101427;27;20434;-78
2023/07/25 08:56:49;;;;;;;4.30;2.90;;;16.10;99.90;;;16.12;96.26;96814.97;5108264;27;20442;-78
2023/07/25 08:59:18;;;;;;;4.50;2.93;;;16.10;99.90;;;16.18;95.32;96826.66;5133593;27;20473;-77
2023/07/25 09:01:45;;;;;;;3.60;2.60;;;16.10;99.90;;;16.29;95.82;96825.47;5124090;27;21422;-78
2023/07/25 09:04:15;;;;;;;4.80;2.30;;;16.10;99.90;;;16.33;94.73;96809.38;5130396;27;20448;-78
2023/07/25 09:06:42;;;;;;;2.70;2.17;;;16.20;99.90;;;16.38;93.50;96818.34;5107517;27;20445;-77
2023/07/25 09:09:09;;;;;;;3.80;2.80;;;16.20;99.90;;;16.32;95.22;96808.59;5122714;27;20572;-78
2023/07/25 09:11:37;;;;;;;2.93;2.63;;;16.20;99.90;;;16.14;95.30;96794.50;5107955;27;20444;-77
2023/07/25 09:14:05;;;;;;;2.60;2.40;;;16.20;99.90;;;16.34;95.94;96798.22;5103005;27;20961;-77
2023/07/25 09:16:33;;;;;;;2.60;2.30;;;16.30;99.90;;;16.65;93.50;96808.06;5128210;27;20462;-78
2023/07/25 09:19:00;;;;;;;2.47;2.27;;;16.40;99.90;;;16.80;90.87;96798.97;5103686;27;20475;-77
2023/07/25 09:21:29;;;;;;;3.97;2.77;;;16.60;99.90;;;16.99;90.44;96799.09;5112557;27;20435;-78
2023/07/25 09:23:58;;;;;;;3.23;2.50;;;16.70;99.90;;;16.89;91.29;96789.03;5123558;27;20442;-77
2023/07/25 09:26:28;;;;;;;2.73;2.50;;;16.80;99.90;;;16.91;91.20;96792.31;5099728;28;20454;-78
2023/07/25 09:28:57;;;;;;;2.30;2.10;;;16.70;99.90;;;17.21;86.96;96784.97;5107857;27;20481;-77
2023/07/25 09:31:27;;;;;;;3.03;2.20;;;16.90;99.90;;;17.56;85.63;96785.69;5124358;27;20450;-78
2023/07/25 09:33:56;;;;;;;2.60;2.17;;;17.20;99.90;;;17.82;83.61;96781.81;5126158;27;20441;-77
2023/07/25 09:36:24;;;;;;;2.60;2.00;;;17.40;98.00;;;18.18;80.97;96781.34;5127713;27;20446;-77
2023/07/25 09:38:54;;;;;;;2.13;1.70;;;17.80;95.30;;;18.51;78.88;96781.44;5121410;27;20471;-77
2023/07/25 09:41:23;;;;;;;4.50;2.13;;;18.10;93.50;;;18.82;78.93;96780.09;5125784;27;21083;-77
2023/07/25 09:43:51;;;;;;;1.90;1.80;;;18.50;93.60;;;18.91;74.41;96764.63;5126386;27;20456;-77
2023/07/25 09:46:19;;;;;;;2.43;1.50;;;18.90;90.90;;;19.38;74.11;96775.56;5110098;28;20443;-78
2023/07/25 09:48:48;;;;;;;1.97;1.30;;;19.10;91.00;;;19.38;73.99;96786.50;5094815;27;20500;-77
2023/07/25 09:51:16;;;;;;;2.00;1.40;;;19.40;90.10;;;19.50;74.35;96771.50;5125607;27;20456;-77
2023/07/25 09:53:44;;;;;;;2.10;1.40;;;19.50;90.30;;;19.66;71.13;96717.25;5097700;27;20813;-77
2023/07/25 09:56:13;;;;;;;3.40;1.63;;;19.80;90.00;;;20.36;69.33;96775.47;5115515;27;20451;-79
2023/07/25 09:58:40;;;;;;;1.47;1.23;;;20.00;88.40;;;20.10;70.18;96772.50;5114485;27;20482;-78
2023/07/25 10:01:09;;;;;;;1.47;1.13;;;20.10;88.00;;;20.39;69.14;96783.06;5117737;27;20478;-78
2023/07/25 10:03:37;;;;;;;2.67;1.57;;;20.20;87.90;;;20.33;69.93;96770.59;5100468;27;20459;-79
2023/07/25 10:06:05;;;;;;;1.83;1.20;;;20.40;88.20;;;20.95;67.14;96780.09;5100924;27;20452;-79
2023/07/25 10:08:32;;;;;;;2.53;1.20;;;20.60;87.40;;;21.05;67.12;96768.03;5109435;27;20875;-79
2023/07/25 10:11:00;;;;;;;1.40;1.10;;;20.70;87.00;;;20.99;67.96;96757.50;5113403;27;20447;-78
2023/07/25 10:13:28;;;;;;;1.40;1.30;;;20.90;87.00;;;20.87;68.01;96756.19;5118670;27;20452;-80
2023/07/25 10:15:56;;;;;;;1.53;1.03;;;20.80;86.40;;;20.47;67.92;96764.25;5126717;27;20531;-78
2023/07/25 10:18:27;;;;;;;1.70;1.30;;;20.50;85.90;;;20.04;69.22;96743.59;5126439;27;20442;-79
2023/07/25 10:20:56;;;;;;;1.20;1.10;;;20.40;86.10;;;20.11;69.61;96774.09;5105356;27;20471;-81
2023/07/25 10:23:31;;;;;;;1.57;1.27;;;20.20;86.50;;;20.07;69.94;96760.19;5099393;27;20799;-80